createdAt,value
2023-03-28T00:00:33.962Z,16.63
2023-03-28T00:03:01.282Z,16.63
2023-03-28T00:05:29.507Z,18.57
2023-03-28T00:07:56.866Z,18.63
2023-03-28T00:10:24.181Z,19.47
2023-03-28T00:12:51.326Z,44.93
2023-03-28T00:15:18.500Z,21.27
2023-03-28T00:17:45.773Z,24.97
2023-03-28T00:20:14.392Z,21.73
2023-03-28T00:22:41.519Z,20.87
2023-03-28T00:25:09.139Z,21.17
2023-03-28T00:27:36.817Z,18.33
2023-03-28T00:30:05.082Z,17.80
2023-03-28T00:32:32.590Z,19.60
2023-03-28T00:34:59.754Z,17.80
2023-03-28T00:37:26.894Z,17.87
2023-03-28T00:39:54.141Z,17.67
2023-03-28T00:42:22.046Z,18.97
2023-03-28T00:44:53.538Z,19.23
2023-03-28T00:47:40.933Z,19.30
2023-03-28T00:50:08.971Z,20.47
2023-03-28T00:52:40.950Z,17.13
2023-03-28T00:55:09.216Z,12.63
2023-03-28T00:57:38.334Z,13.90
2023-03-28T01:00:12.330Z,35.00
2023-03-28T01:02:43.140Z,36.60
2023-03-28T01:05:10.911Z,24.30
2023-03-28T01:07:39.894Z,24.77
2023-03-28T01:10:08.274Z,18.93
2023-03-28T01:12:35.414Z,15.17
2023-03-28T01:15:02.857Z,12.67
2023-03-28T01:17:30.793Z,15.37
2023-03-28T01:20:04.239Z,15.47
2023-03-28T01:23:00.551Z,14.20
2023-03-28T01:25:27.739Z,15.57
2023-03-28T01:28:03.400Z,10.93
2023-03-28T01:30:36.925Z,10.37
2023-03-28T01:33:22.850Z,11.77
2023-03-28T01:35:56.247Z,11.97
2023-03-28T01:38:29.645Z,14.77
2023-03-28T01:41:03.057Z,14.37
2023-03-28T01:43:36.253Z,19.93
2023-03-28T01:46:03.618Z,29.83
2023-03-28T01:48:40.206Z,36.23
2023-03-28T01:51:12.101Z,36.03
2023-03-28T01:53:46.693Z,39.93
2023-03-28T01:56:14.140Z,46.40
2023-03-28T01:58:46.483Z,54.13
2023-03-28T02:01:16.721Z,41.67
2023-03-28T02:03:45.704Z,43.97
2023-03-28T02:06:12.824Z,42.60
2023-03-28T02:08:41.324Z,29.83
2023-03-28T02:11:09.563Z,22.97
2023-03-28T02:13:57.059Z,30.90
2023-03-28T02:16:24.425Z,32.77
2023-03-28T02:18:53.929Z,25.10
2023-03-28T02:21:22.314Z,24.13
2023-03-28T02:23:50.798Z,33.97
2023-03-28T02:26:18.360Z,72.80
2023-03-28T02:28:46.213Z,106.40
2023-03-28T02:31:16.436Z,77.33
2023-03-28T02:33:47.400Z,62.57
2023-03-28T02:36:33.315Z,48.23
2023-03-28T02:39:11.586Z,49.67
2023-03-28T02:41:59.015Z,49.47
2023-03-28T02:44:36.687Z,42.97
2023-03-28T02:47:03.820Z,27.37
2023-03-28T02:49:50.742Z,22.57
2023-03-28T02:52:21.341Z,20.63
2023-03-28T02:54:48.457Z,30.77
2023-03-28T02:57:28.222Z,38.67
2023-03-28T02:59:56.616Z,34.03
2023-03-28T03:02:25.082Z,23.30
2023-03-28T03:04:52.328Z,31.50
2023-03-28T03:07:19.571Z,27.70
2023-03-28T03:09:46.947Z,28.67
2023-03-28T03:12:14.401Z,25.10
2023-03-28T03:14:42.080Z,22.30
2023-03-28T03:17:09.258Z,14.97
2023-03-28T03:19:36.454Z,22.87
2023-03-28T03:22:03.723Z,27.83
2023-03-28T03:24:32.136Z,14.67
2023-03-28T03:26:59.292Z,18.17
2023-03-28T03:29:26.397Z,22.97
2023-03-28T03:32:05.868Z,15.80
2023-03-28T03:34:33.893Z,18.83
2023-03-28T03:37:02.420Z,23.50
2023-03-28T03:39:29.729Z,26.07
2023-03-28T03:41:57.405Z,18.27
2023-03-28T03:44:24.701Z,18.27
2023-03-28T03:46:51.882Z,17.97
2023-03-28T03:49:19.014Z,16.53
2023-03-28T03:51:46.143Z,15.60
2023-03-28T03:54:13.308Z,12.37
2023-03-28T03:56:40.646Z,11.27
2023-03-28T03:59:07.818Z,11.90
2023-03-28T04:01:34.968Z,12.60
2023-03-28T04:04:02.286Z,13.77
2023-03-28T04:06:29.710Z,13.50
2023-03-28T04:08:56.897Z,14.30
2023-03-28T04:11:24.029Z,16.53
2023-03-28T04:13:51.154Z,11.13
2023-03-28T04:16:20.989Z,13.70
2023-03-28T04:18:50.920Z,11.83
2023-03-28T04:21:18.714Z,16.50
2023-03-28T04:23:48.318Z,11.43
2023-03-28T04:26:20.602Z,16.63
2023-03-28T04:28:48.216Z,12.47
2023-03-28T04:31:15.438Z,16.07
2023-03-28T04:33:45.320Z,11.97
2023-03-28T04:36:12.548Z,21.47
2023-03-28T04:38:41.753Z,11.30
2023-03-28T04:41:09.065Z,12.00
2023-03-28T04:43:36.254Z,9.80
2023-03-28T04:46:03.856Z,8.93
2023-03-28T04:48:31.279Z,8.43
2023-03-28T04:50:58.428Z,8.37
2023-03-28T04:53:25.609Z,9.70
2023-03-28T04:55:53.301Z,12.00
2023-03-28T04:58:21.174Z,7.50
2023-03-28T05:00:49.658Z,4.57
2023-03-28T05:03:18.589Z,6.67
2023-03-28T05:05:46.190Z,8.50
2023-03-28T05:08:13.546Z,8.73
2023-03-28T05:10:40.951Z,13.87
2023-03-28T05:13:08.264Z,7.13
2023-03-28T05:15:35.405Z,10.23
2023-03-28T05:18:03.159Z,14.20
2023-03-28T05:20:30.609Z,9.67
2023-03-28T05:22:57.868Z,9.83
2023-03-28T05:25:25.168Z,7.23
2023-03-28T05:27:52.366Z,8.97
2023-03-28T05:30:19.544Z,4.37
2023-03-28T05:32:47.029Z,4.30
2023-03-28T05:35:14.606Z,6.73
2023-03-28T05:37:43.547Z,5.73
2023-03-28T05:40:13.228Z,5.70
2023-03-28T05:42:40.441Z,8.53
2023-03-28T05:45:08.039Z,5.87
2023-03-28T05:47:35.331Z,6.47
2023-03-28T05:50:02.831Z,7.93
2023-03-28T05:52:30.043Z,8.20
2023-03-28T05:54:57.490Z,8.53
2023-03-28T05:57:25.221Z,7.93
2023-03-28T05:59:52.421Z,7.57
2023-03-28T06:02:20.813Z,8.47
2023-03-28T06:04:48.696Z,17.13
2023-03-28T06:07:16.633Z,12.60
2023-03-28T06:09:43.841Z,12.33
2023-03-28T06:12:11.098Z,34.17
2023-03-28T06:14:38.263Z,60.17
2023-03-28T06:17:07.796Z,37.00
2023-03-28T06:19:35.145Z,11.70
2023-03-28T06:22:03.023Z,11.53
2023-03-28T06:24:30.235Z,13.17
2023-03-28T06:26:57.492Z,6.20
2023-03-28T06:29:24.625Z,12.13
2023-03-28T06:31:51.794Z,7.63
2023-03-28T06:34:19.168Z,14.23
2023-03-28T06:36:46.351Z,11.03
2023-03-28T06:39:13.602Z,7.77
2023-03-28T06:41:40.787Z,10.87
2023-03-28T06:44:07.964Z,14.13
2023-03-28T06:46:35.282Z,21.03
2023-03-28T06:49:02.828Z,23.70
2023-03-28T06:51:29.989Z,17.23
2023-03-28T06:53:57.188Z,12.23
2023-03-28T06:56:24.379Z,6.17
2023-03-28T06:58:51.555Z,5.67
2023-03-28T07:01:18.984Z,24.83
2023-03-28T07:03:46.415Z,8.53
2023-03-28T07:06:13.751Z,7.53
2023-03-28T07:08:41.076Z,7.07
2023-03-28T07:11:08.321Z,5.83
2023-03-28T07:13:35.585Z,4.60
2023-03-28T07:16:12.701Z,9.00
2023-03-28T07:18:41.219Z,4.67
2023-03-28T07:21:12.287Z,6.57
2023-03-28T07:23:39.582Z,8.43
2023-03-28T07:26:07.297Z,5.27
2023-03-28T07:28:34.451Z,6.73
2023-03-28T07:31:02.558Z,5.73
2023-03-28T07:33:36.198Z,9.37
2023-03-28T07:36:12.123Z,8.83
2023-03-28T07:38:39.384Z,6.23
2023-03-28T07:41:06.666Z,5.00
2023-03-28T07:43:34.053Z,5.73
2023-03-28T07:46:02.292Z,4.83
2023-03-28T07:48:29.757Z,4.50
2023-03-28T07:50:57.299Z,4.70
2023-03-28T07:53:24.565Z,6.40
2023-03-28T07:55:54.955Z,5.80
2023-03-28T07:58:23.088Z,6.03
2023-03-28T08:00:50.628Z,5.73
2023-03-28T08:03:18.772Z,5.93
2023-03-28T08:05:51.715Z,7.13
2023-03-28T08:08:19.869Z,6.43
2023-03-28T08:10:50.976Z,3.37
2023-03-28T08:13:19.606Z,1.70
2023-03-28T08:15:46.771Z,5.23
2023-03-28T08:18:17.748Z,2.97
2023-03-28T08:20:44.880Z,4.53
2023-03-28T08:23:12.066Z,3.77
2023-03-28T08:25:39.240Z,4.67
2023-03-28T08:28:06.692Z,2.97
2023-03-28T08:30:33.833Z,5.53
2023-03-28T08:33:04.096Z,5.50
2023-03-28T08:35:34.324Z,3.63
2023-03-28T08:38:01.562Z,2.70
2023-03-28T08:40:28.972Z,3.67
2023-03-28T08:43:07.692Z,2.93
2023-03-28T08:45:55.389Z,2.60
2023-03-28T08:48:32.473Z,4.60
2023-03-28T08:51:20.057Z,5.37
2023-03-28T08:53:48.840Z,10.20
2023-03-28T08:56:16.355Z,4.20
2023-03-28T08:59:04.725Z,3.70
2023-03-28T09:01:32.842Z,5.33
2023-03-28T09:04:00.775Z,4.97
2023-03-28T09:06:38.227Z,4.77
2023-03-28T09:09:20.427Z,5.17
2023-03-28T09:11:47.578Z,5.67
2023-03-28T09:14:19.111Z,3.10
2023-03-28T09:16:55.373Z,3.60
2023-03-28T09:19:36.899Z,7.37
2023-03-28T09:22:19.997Z,6.63
2023-03-28T09:24:56.503Z,4.30
2023-03-28T09:27:25.291Z,3.87
2023-03-28T09:29:52.784Z,5.47
2023-03-28T09:32:30.890Z,16.00
2023-03-28T09:34:58.062Z,7.90
2023-03-28T09:37:28.239Z,2.90
2023-03-28T09:39:55.954Z,5.87
2023-03-28T09:42:47.143Z,3.43
2023-03-28T09:45:26.947Z,4.50
2023-03-28T09:47:54.148Z,4.13
2023-03-28T09:50:21.872Z,6.43
2023-03-28T09:52:49.579Z,4.23
2023-03-28T09:55:23.528Z,4.67
2023-03-28T09:58:06.136Z,6.00
2023-03-28T10:00:43.248Z,4.93
2023-03-28T10:03:29.223Z,4.30
2023-03-28T10:06:16.619Z,3.70
2023-03-28T10:08:43.820Z,5.93
2023-03-28T10:11:14.873Z,4.00
2023-03-28T10:13:42.939Z,4.00
2023-03-28T10:16:13.223Z,3.60
2023-03-28T10:18:40.722Z,3.57
2023-03-28T10:21:10.305Z,8.73
2023-03-28T10:23:37.752Z,10.50
2023-03-28T10:26:04.953Z,9.07
2023-03-28T10:28:33.379Z,4.90
2023-03-28T10:31:01.728Z,5.60
2023-03-28T10:33:31.681Z,8.87
2023-03-28T10:35:58.897Z,3.77
2023-03-28T10:38:27.186Z,10.73
2023-03-28T10:40:59.830Z,7.13
2023-03-28T10:43:37.608Z,5.43
2023-03-28T10:46:06.502Z,7.30
2023-03-28T10:48:33.982Z,3.60
2023-03-28T10:51:02.006Z,3.27
2023-03-28T10:53:38.740Z,4.33
2023-03-28T10:56:15.081Z,7.77
2023-03-28T10:58:44.539Z,5.40
2023-03-28T11:01:21.057Z,4.27
2023-03-28T11:03:48.500Z,4.40
2023-03-28T11:06:21.972Z,5.93
2023-03-28T11:08:49.150Z,97.97
2023-03-28T11:11:37.674Z,2.63
2023-03-28T11:14:17.101Z,2.87
2023-03-28T11:16:53.041Z,3.53
2023-03-28T11:19:23.243Z,4.67
2023-03-28T11:22:05.658Z,4.40
2023-03-28T11:24:51.543Z,5.70
2023-03-28T11:27:37.500Z,3.00
2023-03-28T11:30:15.830Z,2.50
2023-03-28T11:33:01.784Z,2.43
2023-03-28T11:35:32.864Z,3.30
2023-03-28T11:38:09.343Z,3.33
2023-03-28T11:40:55.075Z,4.63
2023-03-28T11:43:28.321Z,5.80
2023-03-28T11:45:56.388Z,4.23
2023-03-28T11:48:26.620Z,5.13
2023-03-28T11:51:03.375Z,2.73
2023-03-28T11:53:32.003Z,3.90
2023-03-28T11:56:02.957Z,4.47
2023-03-28T11:58:30.278Z,3.63
2023-03-28T12:00:57.489Z,4.03
2023-03-28T12:03:30.977Z,4.00
2023-03-28T12:06:04.598Z,3.83
2023-03-28T12:08:33.893Z,4.47
2023-03-28T12:11:05.945Z,3.20
2023-03-28T12:14:01.427Z,46.57
2023-03-28T12:16:40.707Z,6.67
2023-03-28T12:19:10.903Z,5.10
2023-03-28T12:21:38.753Z,5.63
2023-03-28T12:24:18.232Z,12.30
2023-03-28T12:26:56.105Z,3.47
2023-03-28T12:29:56.786Z,21.27
2023-03-28T12:32:45.284Z,91.57
2023-03-28T12:35:14.555Z,21.97
2023-03-28T12:37:54.283Z,11.83
2023-03-28T12:40:24.585Z,9.57
2023-03-28T12:42:52.004Z,11.47
2023-03-28T12:45:39.492Z,5.13
2023-03-28T12:48:07.989Z,13.27
2023-03-28T12:50:40.993Z,14.70
2023-03-28T12:53:08.375Z,7.57
2023-03-28T12:55:35.635Z,5.77
2023-03-28T12:58:14.695Z,5.33
2023-03-28T13:00:47.926Z,4.17
2023-03-28T13:03:41.361Z,5.17
2023-03-28T13:06:12.081Z,8.13
2023-03-28T13:08:48.506Z,5.53
2023-03-28T13:11:18.525Z,7.17
2023-03-28T13:13:59.226Z,9.27
2023-03-28T13:16:27.279Z,3.87
2023-03-28T13:19:07.718Z,15.50
2023-03-28T13:21:51.382Z,15.47
2023-03-28T13:24:27.834Z,79.20
2023-03-28T13:26:58.622Z,20.50
2023-03-28T13:29:25.870Z,61.27
2023-03-28T13:31:53.118Z,23.17
2023-03-28T13:34:25.101Z,32.77
2023-03-28T13:36:55.600Z,31.40
2023-03-28T13:39:26.153Z,21.03
2023-03-28T13:41:55.206Z,40.83
2023-03-28T13:44:28.433Z,16.97
2023-03-28T13:46:55.764Z,9.43
2023-03-28T13:49:31.851Z,5.67
2023-03-28T13:52:15.599Z,5.20
2023-03-28T13:54:42.743Z,4.37
2023-03-28T13:57:17.598Z,3.87
2023-03-28T13:59:58.600Z,9.23
2023-03-28T14:02:33.475Z,5.17
2023-03-28T14:05:19.976Z,3.60
2023-03-28T14:07:47.403Z,4.33
2023-03-28T14:10:28.765Z,4.33
2023-03-28T14:12:56.840Z,8.07
2023-03-28T14:15:26.033Z,5.63
2023-03-28T14:17:53.196Z,10.43
2023-03-28T14:20:20.414Z,56.93
2023-03-28T14:23:00.042Z,8.60
2023-03-28T14:25:28.439Z,5.37
2023-03-28T14:27:56.269Z,4.70
2023-03-28T14:30:27.563Z,7.23
2023-03-28T14:33:01.618Z,7.73
2023-03-28T14:35:32.458Z,12.20
2023-03-28T14:38:01.001Z,12.90
2023-03-28T14:40:32.519Z,10.23
2023-03-28T14:43:00.628Z,12.30
2023-03-28T14:45:28.570Z,18.50
2023-03-28T14:47:56.562Z,11.10
2023-03-28T14:50:24.371Z,21.80
2023-03-28T14:52:51.551Z,4.60
2023-03-28T14:55:19.929Z,5.33
2023-03-28T14:57:48.081Z,8.53
2023-03-28T15:00:16.328Z,5.97
2023-03-28T15:02:43.554Z,15.73
2023-03-28T15:05:11.015Z,12.53
2023-03-28T15:07:38.300Z,8.80
2023-03-28T15:10:06.616Z,10.93
2023-03-28T15:12:34.498Z,19.77
2023-03-28T15:15:01.639Z,4.77
2023-03-28T15:17:28.828Z,10.57
2023-03-28T15:19:58.288Z,11.03
2023-03-28T15:22:27.249Z,8.70
2023-03-28T15:24:55.289Z,9.53
2023-03-28T15:27:26.992Z,41.93
2023-03-28T15:29:54.171Z,32.70
2023-03-28T15:32:21.417Z,28.87
2023-03-28T15:34:49.332Z,20.80
2023-03-28T15:37:19.573Z,9.30
2023-03-28T15:39:49.558Z,6.57
2023-03-28T15:42:19.859Z,11.70
2023-03-28T15:44:58.948Z,28.87
2023-03-28T15:47:26.693Z,11.50
2023-03-28T15:50:01.193Z,29.73
2023-03-28T15:52:29.791Z,36.33
2023-03-28T15:54:56.986Z,11.93
2023-03-28T15:57:25.637Z,9.60
2023-03-28T15:59:53.396Z,6.37
2023-03-28T16:02:23.657Z,11.13
2023-03-28T16:04:59.764Z,14.63
2023-03-28T16:07:27.118Z,9.13
2023-03-28T16:09:54.372Z,14.23
2023-03-28T16:12:21.574Z,13.73
2023-03-28T16:14:52.933Z,11.17
2023-03-28T16:17:24.786Z,9.53
2023-03-28T16:19:52.001Z,22.20
2023-03-28T16:22:21.041Z,9.27
2023-03-28T16:24:49.210Z,20.67
2023-03-28T16:27:16.593Z,21.33
2023-03-28T16:29:43.904Z,9.03
2023-03-28T16:32:12.425Z,14.83
2023-03-28T16:34:39.980Z,47.13
2023-03-28T16:37:08.920Z,60.33
2023-03-28T16:39:37.419Z,34.33
2023-03-28T16:42:05.390Z,48.30
2023-03-28T16:44:32.626Z,56.43
2023-03-28T16:47:00.512Z,52.07
2023-03-28T16:49:27.673Z,36.50
2023-03-28T16:51:55.718Z,24.17
2023-03-28T16:54:23.351Z,20.67
2023-03-28T16:56:50.941Z,25.37
2023-03-28T16:59:18.222Z,9.87
2023-03-28T17:01:46.393Z,27.47
2023-03-28T17:04:13.773Z,20.07
2023-03-28T17:06:40.932Z,15.10
2023-03-28T17:09:08.597Z,19.83
2023-03-28T17:11:36.092Z,13.53
2023-03-28T17:14:03.760Z,8.90
2023-03-28T17:16:31.524Z,8.80
2023-03-28T17:18:58.701Z,9.93
2023-03-28T17:21:25.873Z,7.83
2023-03-28T17:23:53.259Z,7.53
2023-03-28T17:26:20.529Z,7.43
2023-03-28T17:28:47.734Z,6.57
2023-03-28T17:31:16.816Z,5.40
2023-03-28T17:33:44.337Z,6.60
2023-03-28T17:36:14.460Z,12.83
2023-03-28T17:38:42.401Z,9.07
2023-03-28T17:41:09.547Z,18.13
2023-03-28T17:43:36.718Z,13.40
2023-03-28T17:46:04.160Z,9.87
2023-03-28T17:48:31.470Z,15.67
2023-03-28T17:50:58.627Z,12.30
2023-03-28T17:53:26.164Z,18.10
2023-03-28T17:55:53.309Z,21.30
2023-03-28T17:58:20.525Z,11.93
2023-03-28T18:00:47.720Z,16.00
2023-03-28T18:03:14.992Z,17.73
2023-03-28T18:05:42.202Z,17.17
2023-03-28T18:08:09.411Z,18.70
2023-03-28T18:10:38.840Z,10.10
2023-03-28T18:13:06.085Z,9.20
2023-03-28T18:15:33.375Z,9.17
2023-03-28T18:18:02.299Z,10.80
2023-03-28T18:20:29.554Z,15.90
2023-03-28T18:22:56.757Z,23.33
2023-03-28T18:25:23.938Z,22.20
2023-03-28T18:27:51.112Z,12.33
2023-03-28T18:30:18.410Z,18.00
2023-03-28T18:32:46.419Z,29.67
2023-03-28T18:35:13.558Z,22.47
2023-03-28T18:37:40.926Z,21.03
2023-03-28T18:40:11.008Z,14.03
2023-03-28T18:42:38.221Z,17.17
2023-03-28T18:45:05.506Z,23.17
2023-03-28T18:47:33.109Z,12.60
2023-03-28T18:50:00.671Z,24.17
2023-03-28T18:52:29.766Z,26.83
2023-03-28T18:54:57.010Z,13.93
2023-03-28T18:57:24.276Z,27.50
2023-03-28T18:59:55.688Z,36.43
2023-03-28T19:02:22.933Z,38.03
2023-03-28T19:04:50.226Z,40.07
2023-03-28T19:07:17.554Z,19.57
2023-03-28T19:09:44.753Z,17.07
2023-03-28T19:12:12.427Z,15.63
2023-03-28T19:14:39.768Z,19.20
2023-03-28T19:17:07.267Z,31.63
2023-03-28T19:19:37.380Z,20.20
2023-03-28T19:22:06.428Z,9.67
2023-03-28T19:24:33.839Z,15.23
2023-03-28T19:27:02.078Z,12.43
2023-03-28T19:29:32.101Z,16.50
2023-03-28T19:31:59.323Z,12.83
2023-03-28T19:34:27.933Z,11.17
2023-03-28T19:36:55.153Z,11.73
2023-03-28T19:39:22.498Z,16.87
2023-03-28T19:41:49.636Z,19.90
2023-03-28T19:44:16.815Z,23.80
2023-03-28T19:46:44.208Z,44.87
2023-03-28T19:49:11.630Z,42.57
2023-03-28T19:51:38.793Z,22.10
2023-03-28T19:54:06.102Z,97.20
2023-03-28T19:56:33.459Z,197.57
2023-03-28T19:59:00.627Z,109.30
2023-03-28T20:01:27.867Z,104.23
2023-03-28T20:03:55.093Z,51.40
2023-03-28T20:06:22.405Z,20.27
2023-03-28T20:08:49.662Z,22.60
2023-03-28T20:11:16.955Z,106.03
2023-03-28T20:13:44.298Z,21.87
2023-03-28T20:16:11.983Z,29.40
2023-03-28T20:18:39.268Z,22.90
2023-03-28T20:21:07.311Z,23.43
2023-03-28T20:23:34.485Z,16.93
2023-03-28T20:26:01.796Z,17.57
2023-03-28T20:28:33.885Z,12.70
2023-03-28T20:31:01.316Z,12.17
2023-03-28T20:33:28.663Z,11.93
2023-03-28T20:35:56.762Z,9.80
2023-03-28T20:38:24.629Z,9.67
2023-03-28T20:40:51.813Z,11.67
2023-03-28T20:43:24.120Z,10.20
2023-03-28T20:45:53.951Z,15.43
2023-03-28T20:48:35.016Z,18.57
2023-03-28T20:51:06.128Z,55.10
2023-03-28T20:53:33.618Z,59.07
2023-03-28T20:56:04.704Z,82.57
2023-03-28T20:58:32.378Z,43.43
2023-03-28T21:01:00.415Z,32.67
2023-03-28T21:03:47.125Z,29.93
2023-03-28T21:06:15.695Z,40.57
2023-03-28T21:08:45.768Z,62.87
2023-03-28T21:11:13.922Z,42.87
2023-03-28T21:13:41.214Z,37.93
2023-03-28T21:16:08.662Z,56.87
2023-03-28T21:18:37.637Z,55.30
2023-03-28T21:21:07.283Z,55.97
2023-03-28T21:23:34.903Z,52.13
2023-03-28T21:26:02.102Z,71.03
2023-03-28T21:28:29.510Z,48.83
2023-03-28T21:30:57.546Z,101.23
2023-03-28T21:33:24.762Z,77.67
2023-03-28T21:35:52.071Z,85.40
2023-03-28T21:38:19.429Z,63.37
2023-03-28T21:40:49.562Z,97.70
2023-03-28T21:43:16.996Z,66.63
2023-03-28T21:45:45.155Z,49.67
2023-03-28T21:48:12.485Z,60.20
2023-03-28T21:50:40.890Z,48.43
2023-03-28T21:53:11.289Z,43.57
2023-03-28T21:55:38.626Z,45.20
2023-03-28T21:58:05.803Z,32.17
2023-03-28T22:00:32.958Z,31.13
2023-03-28T22:03:00.318Z,29.40
2023-03-28T22:05:29.624Z,30.57
2023-03-28T22:07:57.354Z,33.73
2023-03-28T22:10:29.380Z,33.60
2023-03-28T22:12:58.899Z,42.50
2023-03-28T22:15:26.227Z,35.53
2023-03-28T22:17:58.241Z,34.57
2023-03-28T22:20:26.136Z,33.50
2023-03-28T22:22:53.280Z,28.60
2023-03-28T22:25:22.554Z,44.43
2023-03-28T22:27:49.802Z,32.33
2023-03-28T22:30:17.087Z,29.23
2023-03-28T22:32:44.420Z,31.17
2023-03-28T22:35:12.128Z,25.37
2023-03-28T22:37:39.366Z,28.57
2023-03-28T22:40:08.390Z,24.23
2023-03-28T22:42:36.767Z,26.90
2023-03-28T22:45:04.245Z,19.77
2023-03-28T22:47:43.122Z,22.13
2023-03-28T22:50:11.711Z,24.77
2023-03-28T22:52:39.029Z,26.03
2023-03-28T22:55:06.454Z,26.53
2023-03-28T22:57:33.635Z,25.17
2023-03-28T23:00:01.746Z,28.60
2023-03-28T23:02:29.333Z,25.53
2023-03-28T23:04:57.098Z,26.23
2023-03-28T23:07:24.318Z,26.93
2023-03-28T23:09:51.993Z,25.97
2023-03-28T23:12:19.120Z,22.53
2023-03-28T23:14:46.738Z,18.20
2023-03-28T23:17:14.127Z,19.27
2023-03-28T23:19:41.247Z,17.63
2023-03-28T23:22:10.087Z,18.27
2023-03-28T23:24:37.949Z,22.20
2023-03-28T23:27:06.676Z,33.80
2023-03-28T23:29:34.142Z,20.57
2023-03-28T23:32:01.346Z,21.57
2023-03-28T23:34:28.535Z,19.80
2023-03-28T23:36:57.978Z,22.70
2023-03-28T23:39:25.233Z,23.30
2023-03-28T23:41:52.363Z,29.20
2023-03-28T23:44:19.553Z,25.43
2023-03-28T23:46:49.658Z,21.53
2023-03-28T23:49:17.475Z,20.43
2023-03-28T23:51:44.609Z,29.57
2023-03-28T23:54:12.597Z,25.90
2023-03-28T23:56:39.904Z,33.00
2023-03-28T23:59:07.788Z,29.27
